Terminal Aerodrome Forecast
Issued by NWS Pueblo, CO

Home | Current Version | Previous Version | Text Only | Print | Product List | Glossary On
Versions: 1 2 3 4 5 6 7 8 9 10 11 12 13 14 15 16 17 18 19 20 21 22 23 24 25 26 27 28 29 30 31 32 33 34 35 36
000
FTUS45 KPUB 041058 AAB
TAFALS
TAF AMD
KALS 041058Z 0411/0506 VRB03KT 3SM BR VV001
      TEMPO 0411/0413 1/2SM FG SCT001 BKN005
     FM041500 19010KT P6SM FEW070 SCT120
     FM042100 22012KT P6SM VCTS SCT070CB BKN100
     FM050200 06010KT P6SM VCSH BKN070=

USA.gov is the U.S. government's official web portal to all federal, state and local government web resources and services.